Time;durP1;ratioP1;P1;durP2;ratioP2;P2;SDS_P1;SDS_P2;PMS_P1;PMS_P2;Temp;Humidity;BMP_temperature;BMP_pressure;BME280_temperature;BME280_humidity;BME280_pressure;Samples;Min_cycle;Max_cycle;Signal;HPM_P1;HPM_P2
2024/04/13 00:01:22;;;;;;;;;;;;;;;;;;5451783;26;20000;-63
2024/04/13 00:03:47;;;;;;;;;;;;;;;;;;5451279;26;19928;-62
2024/04/13 00:06:12;;;;;;;;;;;;;;;;;;5451629;26;20373;-62
2024/04/13 00:08:40;;;;;;;;;;;;;;;;;;5451626;26;19941;-62
2024/04/13 00:11:08;;;;;;;;;;;;;;;;;;5451143;26;19940;-62
2024/04/13 00:13:33;;;;;;;;;;;;;;;;;;5451513;26;19936;-61
2024/04/13 00:15:58;;;;;;;;;;;;;;;;;;5451078;26;19932;-62
2024/04/13 00:18:23;;;;;;;;;;;;;;;;;;5451046;26;19928;-62
2024/04/13 00:20:48;;;;;;;;;;;;;;;;;;5451422;26;19935;-63
2024/04/13 00:23:13;;;;;;;;;;;;;;;;;;5451295;26;19928;-61
2024/04/13 00:25:38;;;;;;;;;;;;;;;;;;5451308;26;19929;-61
2024/04/13 00:28:05;;;;;;;;;;;;;;;;;;5451090;26;19928;-62
2024/04/13 00:30:30;;;;;;;;;;;;;;;;;;5451193;26;19935;-62
2024/04/13 00:32:55;;;;;;;;;;;;;;;;;;5447714;26;19937;-61
2024/04/13 00:35:21;;;;;;;;;;;;;;;;;;5451516;26;19932;-62
2024/04/13 00:37:46;;;;;;;;;;;;;;;;;;5450771;26;19928;-62
2024/04/13 00:40:11;;;;;;;;;;;;;;;;;;5451176;26;19936;-62
2024/04/13 00:42:36;;;;;;;;;;;;;;;;;;5450946;26;19935;-62
2024/04/13 00:45:03;;;;;;;;;;;;;;;;;;5450860;26;19969;-62
2024/04/13 00:47:28;;;;;;;;;;;;;;;;;;5450985;26;20342;-62
2024/04/13 00:49:55;;;;;;;;;;;;;;;;;;5450824;26;20373;-64
2024/04/13 00:52:21;;;;;;;;;;;;;;;;;;5450765;26;20147;-64
2024/04/13 00:54:46;;;;;;;;;;;;;;;;;;5448177;26;19960;-64
2024/04/13 00:57:12;;;;;;;;;;;;;;;;;;5450071;26;20069;-64
2024/04/13 00:59:37;;;;;;;;;;;;;;;;;;5448105;26;19997;-64
2024/04/13 01:02:02;;;;;;;;;;;;;;;;;;5448550;26;19938;-65
2024/04/13 01:04:27;;;;;;;;;;;;;;;;;;5450386;26;19928;-65
2024/04/13 01:06:53;;;;;;;;;;;;;;;;;;5450796;26;19968;-65
2024/04/13 01:09:20;;;;;;;;;;;;;;;;;;5449997;26;19929;-65
2024/04/13 01:11:45;;;;;;;;;;;;;;;;;;5449736;26;20236;-65
2024/04/13 01:14:10;;;;;;;;;;;;;;;;;;5449825;26;20699;-65
2024/04/13 01:16:35;;;;;;;;;;;;;;;;;;5450056;26;19935;-65
2024/04/13 01:19:01;;;;;;;;;;;;;;;;;;5452653;26;20000;-64
2024/04/13 01:21:26;;;;;;;;;;;;;;;;;;5449478;26;19929;-65
2024/04/13 01:23:51;;;;;;;;;;;;;;;;;;5448703;26;20669;-64
2024/04/13 01:26:16;;;;;;;;;;;;;;;;;;5449248;26;19969;-64
2024/04/13 01:28:41;;;;;;;;;;;;;;;;;;5447468;26;20269;-65
2024/04/13 01:31:08;;;;;;;;;;;;;;;;;;5449517;26;19946;-64
2024/04/13 01:33:33;;;;;;;;;;;;;;;;;;5449565;26;20308;-65
2024/04/13 01:36:01;;;;;;;;;;;;;;;;;;5448869;26;20365;-65
2024/04/13 01:38:26;;;;;;;;;;;;;;;;;;5450119;26;19936;-64
2024/04/13 01:40:51;;;;;;;;;;;;;;;;;;5449918;26;19943;-65
2024/04/13 01:43:16;;;;;;;;;;;;;;;;;;5452809;26;19936;-65
2024/04/13 01:45:41;;;;;;;;;;;;;;;;;;5450889;26;19929;-63
2024/04/13 01:48:06;;;;;;;;;;;;;;;;;;5452912;26;19936;-65
2024/04/13 01:50:32;;;;;;;;;;;;;;;;;;5452919;26;20405;-65
2024/04/13 01:52:57;;;;;;;;;;;;;;;;;;5450790;26;20372;-64
2024/04/13 01:55:22;;;;;;;;;;;;;;;;;;5453498;26;20268;-65
2024/04/13 01:57:48;;;;;;;;;;;;;;;;;;5453482;26;20273;-65
2024/04/13 02:00:14;;;;;;;;;;;;;;;;;;5453853;26;19929;-62
2024/04/13 02:02:40;;;;;;;;;;;;;;;;;;5453376;26;19964;-61
2024/04/13 02:05:05;;;;;;;;;;;;;;;;;;5453261;26;19936;-61
2024/04/13 02:07:33;;;;;;;;;;;;;;;;;;5453439;26;20001;-62
2024/04/13 02:09:59;;;;;;;;;;;;;;;;;;5452963;26;19938;-62
2024/04/13 02:12:24;;;;;;;;;;;;;;;;;;5453136;26;19929;-62
2024/04/13 02:14:49;;;;;;;;;;;;;;;;;;5453239;26;19940;-61
2024/04/13 02:17:14;;;;;;;;;;;;;;;;;;5453166;26;19936;-62
2024/04/13 02:19:41;;;;;;;;;;;;;;;;;;5453181;26;19957;-62
2024/04/13 02:22:06;;;;;;;;;;;;;;;;;;5452670;26;19928;-62
2024/04/13 02:24:32;;;;;;;;;;;;;;;;;;5452807;26;19928;-64
2024/04/13 02:26:57;;;;;;;;;;;;;;;;;;5449579;26;19928;-62
2024/04/13 02:29:22;;;;;;;;;;;;;;;;;;5452691;26;19928;-62
2024/04/13 02:31:47;;;;;;;;;;;;;;;;;;5452881;26;19928;-62
2024/04/13 02:34:12;;;;;;;;;;;;;;;;;;5453064;26;19933;-61
2024/04/13 02:36:38;;;;;;;;;;;;;;;;;;5452810;26;19928;-62
2024/04/13 02:39:07;;;;;;;;;;;;;;;;;;5452734;26;19935;-62
2024/04/13 02:41:32;;;;;;;;;;;;;;;;;;5452885;26;19932;-62
2024/04/13 02:43:58;;;;;;;;;;;;;;;;;;5451495;26;19928;-61
2024/04/13 02:46:23;;;;;;;;;;;;;;;;;;5451206;26;19928;-62
2024/04/13 02:48:48;;;;;;;;;;;;;;;;;;5451908;26;19936;-62
2024/04/13 02:51:17;;;;;;;;;;;;;;;;;;5451583;26;19929;-61
2024/04/13 02:53:42;;;;;;;;;;;;;;;;;;5451107;26;19940;-61
2024/04/13 02:56:07;;;;;;;;;;;;;;;;;;5449016;26;20001;-62
2024/04/13 02:58:32;;;;;;;;;;;;;;;;;;5453034;26;19935;-61
2024/04/13 03:00:57;;;;;;;;;;;;;;;;;;5451540;26;19936;-62
2024/04/13 03:03:22;;;;;;;;;;;;;;;;;;5451883;26;19928;-62
2024/04/13 03:05:48;;;;;;;;;;;;;;;;;;5451702;26;19928;-62
2024/04/13 03:08:13;;;;;;;;;;;;;;;;;;5451801;26;19928;-62
2024/04/13 03:10:38;;;;;;;;;;;;;;;;;;5450504;26;20266;-61
2024/04/13 03:13:03;;;;;;;;;;;;;;;;;;5451319;26;19937;-61
2024/04/13 03:15:28;;;;;;;;;;;;;;;;;;5451887;26;19929;-62
2024/04/13 03:17:53;;;;;;;;;;;;;;;;;;5452330;26;20471;-61
2024/04/13 03:20:18;;;;;;;;;;;;;;;;;;5452606;26;19935;-62
2024/04/13 03:22:44;;;;;;;;;;;;;;;;;;5449130;26;20272;-63
2024/04/13 03:25:09;;;;;;;;;;;;;;;;;;5451473;26;19936;-62
2024/04/13 03:27:35;;;;;;;;;;;;;;;;;;5450399;26;19936;-62
2024/04/13 03:30:00;;;;;;;;;;;;;;;;;;5446924;26;20269;-61
2024/04/13 03:32:25;;;;;;;;;;;;;;;;;;5451961;26;20358;-61
2024/04/13 03:34:51;;;;;;;;;;;;;;;;;;5449296;26;19929;-61
2024/04/13 03:37:17;;;;;;;;;;;;;;;;;;5451460;26;19929;-61
2024/04/13 03:39:42;;;;;;;;;;;;;;;;;;5451275;26;19932;-61
2024/04/13 03:42:08;;;;;;;;;;;;;;;;;;5451216;26;19930;-62
2024/04/13 03:44:33;;;;;;;;;;;;;;;;;;5451894;26;19929;-62
2024/04/13 03:46:58;;;;;;;;;;;;;;;;;;5449133;26;19994;-62
2024/04/13 03:49:23;;;;;;;;;;;;;;;;;;5451914;26;19997;-61
2024/04/13 03:51:48;;;;;;;;;;;;;;;;;;5451318;26;19935;-61
2024/04/13 03:54:13;;;;;;;;;;;;;;;;;;5451639;26;19956;-61
2024/04/13 03:56:38;;;;;;;;;;;;;;;;;;5451674;26;20315;-61
2024/04/13 03:59:03;;;;;;;;;;;;;;;;;;5451788;26;19935;-62
2024/04/13 04:01:29;;;;;;;;;;;;;;;;;;5451647;26;19966;-61
2024/04/13 04:03:54;;;;;;;;;;;;;;;;;;5450989;26;19929;-62
2024/04/13 04:06:19;;;;;;;;;;;;;;;;;;5451517;26;19937;-62
2024/04/13 04:08:44;;;;;;;;;;;;;;;;;;5451361;26;19935;-61
2024/04/13 04:11:10;;;;;;;;;;;;;;;;;;5451576;26;19940;-61
2024/04/13 04:13:35;;;;;;;;;;;;;;;;;;5451689;26;19935;-62
2024/04/13 04:16:00;;;;;;;;;;;;;;;;;;5451722;26;19932;-62
2024/04/13 04:18:25;;;;;;;;;;;;;;;;;;5451423;26;19933;-61
2024/04/13 04:20:50;;;;;;;;;;;;;;;;;;5450731;26;20376;-64
2024/04/13 04:23:15;;;;;;;;;;;;;;;;;;5451787;26;19928;-64
2024/04/13 04:25:41;;;;;;;;;;;;;;;;;;5451048;26;19929;-64
2024/04/13 04:28:06;;;;;;;;;;;;;;;;;;5451289;26;19945;-64
2024/04/13 04:30:31;;;;;;;;;;;;;;;;;;5451335;26;19928;-64
2024/04/13 04:32:56;;;;;;;;;;;;;;;;;;5451092;26;19929;-64
2024/04/13 04:35:21;;;;;;;;;;;;;;;;;;5451208;26;19984;-64
2024/04/13 04:37:46;;;;;;;;;;;;;;;;;;5450083;26;19928;-64
2024/04/13 04:40:12;;;;;;;;;;;;;;;;;;5450972;26;19997;-64
2024/04/13 04:42:37;;;;;;;;;;;;;;;;;;5450748;26;19940;-64
2024/04/13 04:45:02;;;;;;;;;;;;;;;;;;5450741;26;20482;-64
2024/04/13 04:47:27;;;;;;;;;;;;;;;;;;5451079;26;19936;-64
2024/04/13 04:49:52;;;;;;;;;;;;;;;;;;5450636;26;20377;-64
2024/04/13 04:52:17;;;;;;;;;;;;;;;;;;5450543;26;19928;-64
2024/04/13 04:54:43;;;;;;;;;;;;;;;;;;5449437;26;19936;-64
2024/04/13 04:57:08;;;;;;;;;;;;;;;;;;5449682;26;19997;-64
2024/04/13 04:59:33;;;;;;;;;;;;;;;;;;5450737;26;19997;-64
2024/04/13 05:01:58;;;;;;;;;;;;;;;;;;5450130;26;19946;-64
2024/04/13 05:04:24;;;;;;;;;;;;;;;;;;5450183;26;20365;-65
2024/04/13 05:06:49;;;;;;;;;;;;;;;;;;5450027;26;20373;-64
2024/04/13 05:09:14;;;;;;;;;;;;;;;;;;5449954;26;19928;-64
2024/04/13 05:11:39;;;;;;;;;;;;;;;;;;5448835;26;19940;-64
2024/04/13 05:14:05;;;;;;;;;;;;;;;;;;5450538;26;19929;-65
2024/04/13 05:16:31;;;;;;;;;;;;;;;;;;5448456;26;19929;-65
2024/04/13 05:18:56;;;;;;;;;;;;;;;;;;5449019;26;20387;-64
2024/04/13 05:21:21;;;;;;;;;;;;;;;;;;5450059;26;19928;-65
2024/04/13 05:23:46;;;;;;;;;;;;;;;;;;5448830;26;20366;-64
2024/04/13 05:26:11;;;;;;;;;;;;;;;;;;5450950;26;20249;-64
2024/04/13 05:28:37;;;;;;;;;;;;;;;;;;5446864;26;20251;-65
2024/04/13 05:31:08;;;;;;;;;;;;;;;;;;5449184;26;19929;-64
2024/04/13 05:33:34;;;;;;;;;;;;;;;;;;5448110;26;19935;-65
2024/04/13 05:35:59;;;;;;;;;;;;;;;;;;5447948;26;19929;-64
2024/04/13 05:38:24;;;;;;;;;;;;;;;;;;5449826;26;19950;-65
2024/04/13 05:40:49;;;;;;;;;;;;;;;;;;5449759;26;20001;-65
2024/04/13 05:43:16;;;;;;;;;;;;;;;;;;5447220;26;19936;-64
2024/04/13 05:45:41;;;;;;;;;;;;;;;;;;5449792;26;19929;-65
2024/04/13 05:48:07;;;;;;;;;;;;;;;;;;5449616;26;19935;-65
2024/04/13 05:50:32;;;;;;;;;;;;;;;;;;5448907;26;19951;-65
2024/04/13 05:52:57;;;;;;;;;;;;;;;;;;5449467;26;19936;-64
2024/04/13 05:55:22;;;;;;;;;;;;;;;;;;5449226;26;19940;-64
2024/04/13 05:57:47;;;;;;;;;;;;;;;;;;5447413;26;19928;-64
2024/04/13 06:00:12;;;;;;;;;;;;;;;;;;5449987;26;19928;-64
2024/04/13 06:02:38;;;;;;;;;;;;;;;;;;5450051;26;20317;-63
2024/04/13 06:05:03;;;;;;;;;;;;;;;;;;5450099;26;19993;-64
2024/04/13 06:07:28;;;;;;;;;;;;;;;;;;5450001;26;19940;-64
2024/04/13 06:09:53;;;;;;;;;;;;;;;;;;5449881;26;19928;-64
2024/04/13 06:12:18;;;;;;;;;;;;;;;;;;5449984;26;19936;-64
2024/04/13 06:14:43;;;;;;;;;;;;;;;;;;5449674;26;19935;-64
2024/04/13 06:17:09;;;;;;;;;;;;;;;;;;5449468;26;19929;-64
2024/04/13 06:19:34;;;;;;;;;;;;;;;;;;5449820;26;19935;-64
2024/04/13 06:21:59;;;;;;;;;;;;;;;;;;5449915;26;19943;-64
2024/04/13 06:24:24;;;;;;;;;;;;;;;;;;5449463;26;20435;-64
2024/04/13 06:26:49;;;;;;;;;;;;;;;;;;5449186;26;19928;-64
2024/04/13 06:29:14;;;;;;;;;;;;;;;;;;5452890;26;19929;-65
2024/04/13 06:31:39;;;;;;;;;;;;;;;;;;5452400;26;19940;-65
2024/04/13 06:34:05;;;;;;;;;;;;;;;;;;5451302;26;19929;-65
2024/04/13 06:36:30;;;;;;;;;;;;;;;;;;5451886;26;19936;-65
2024/04/13 06:38:55;;;;;;;;;;;;;;;;;;5451976;26;20384;-65
2024/04/13 06:41:20;;;;;;;;;;;;;;;;;;5451175;26;20280;-65
2024/04/13 06:43:45;;;;;;;;;;;;;;;;;;5449931;26;19952;-65
2024/04/13 06:46:11;;;;;;;;;;;;;;;;;;5451147;26;19940;-65
2024/04/13 06:48:36;;;;;;;;;;;;;;;;;;5452075;26;19929;-65
2024/04/13 06:51:01;;;;;;;;;;;;;;;;;;5450783;26;20668;-65
2024/04/13 06:53:26;;;;;;;;;;;;;;;;;;5452828;26;19997;-65
2024/04/13 06:55:51;;;;;;;;;;;;;;;;;;5449943;26;20005;-65
2024/04/13 06:58:17;;;;;;;;;;;;;;;;;;5452563;26;19997;-65
2024/04/13 07:00:42;;;;;;;;;;;;;;;;;;5452550;26;19939;-65
2024/04/13 07:03:07;;;;;;;;;;;;;;;;;;5441950;26;19940;-65
2024/04/13 07:05:32;;;;;;;;;;;;;;;;;;5431836;26;19962;-65
2024/04/13 07:07:57;;;;;;;;;;;;;;;;;;5416582;26;20365;-65
2024/04/13 07:10:22;;;;;;;;;;;;;;;;;;5445200;26;20274;-65
2024/04/13 07:12:47;;;;;;;;;;;;;;;;;;5439186;26;20272;-65
2024/04/13 07:15:13;;;;;;;;;;;;;;;;;;5433945;26;19957;-65
2024/04/13 07:17:38;;;;;;;;;;;;;;;;;;5449752;26;20266;-65
2024/04/13 07:20:06;;;;;;;;;;;;;;;;;;5440276;26;19929;-65
2024/04/13 07:22:31;;;;;;;;;;;;;;;;;;5436471;26;19929;-65
2024/04/13 07:24:56;;;;;;;;;;;;;;;;;;5451505;26;20288;-65
2024/04/13 07:27:23;;;;;;;;;;;;;;;;;;5443627;26;20259;-65
2024/04/13 07:29:48;;;;;;;;;;;;;;;;;;5432923;26;19928;-65
2024/04/13 07:32:13;;;;;;;;;;;;;;;;;;5430942;26;19935;-65
2024/04/13 07:34:40;;;;;;;;;;;;;;;;;;5448348;26;19996;-65
2024/04/13 07:37:05;;;;;;;;;;;;;;;;;;5451949;26;19960;-66
2024/04/13 07:39:30;;;;;;;;;;;;;;;;;;5450908;26;19928;-65
2024/04/13 07:41:56;;;;;;;;;;;;;;;;;;5450916;26;19944;-65
2024/04/13 07:44:21;;;;;;;;;;;;;;;;;;5438891;26;19928;-65
2024/04/13 07:46:46;;;;;;;;;;;;;;;;;;5433626;26;19929;-64
2024/04/13 07:49:11;;;;;;;;;;;;;;;;;;5436646;26;19929;-65
2024/04/13 07:51:37;;;;;;;;;;;;;;;;;;5450885;26;19929;-65
2024/04/13 07:54:02;;;;;;;;;;;;;;;;;;5451223;26;19928;-65
2024/04/13 07:56:27;;;;;;;;;;;;;;;;;;5451287;26;19936;-65
2024/04/13 07:58:52;;;;;;;;;;;;;;;;;;5451408;26;19936;-66
2024/04/13 08:01:17;;;;;;;;;;;;;;;;;;5451338;26;19928;-65
2024/04/13 08:03:43;;;;;;;;;;;;;;;;;;5444968;26;20269;-66
2024/04/13 08:06:09;;;;;;;;;;;;;;;;;;5450270;26;19956;-66
2024/04/13 08:08:34;;;;;;;;;;;;;;;;;;5447343;26;19936;-64
2024/04/13 08:10:59;;;;;;;;;;;;;;;;;;5450555;26;19932;-64
2024/04/13 08:13:24;;;;;;;;;;;;;;;;;;5448256;26;19928;-64
2024/04/13 08:15:50;;;;;;;;;;;;;;;;;;5451004;26;20361;-64
2024/04/13 08:18:15;;;;;;;;;;;;;;;;;;5449324;26;19928;-64
2024/04/13 08:20:40;;;;;;;;;;;;;;;;;;5449694;26;19929;-64
2024/04/13 08:23:05;;;;;;;;;;;;;;;;;;5450162;26;20005;-65
2024/04/13 08:25:30;;;;;;;;;;;;;;;;;;5450148;26;19935;-65
2024/04/13 08:27:55;;;;;;;;;;;;;;;;;;5449497;26;19935;-65
2024/04/13 08:30:21;;;;;;;;;;;;;;;;;;5450421;26;19929;-64
2024/04/13 08:32:48;;;;;;;;;;;;;;;;;;5450842;26;19928;-64
2024/04/13 08:35:13;;;;;;;;;;;;;;;;;;5449941;26;20512;-64
2024/04/13 08:37:38;;;;;;;;;;;;;;;;;;5449844;26;20382;-64
2024/04/13 08:40:03;;;;;;;;;;;;;;;;;;5448304;26;19940;-64
2024/04/13 08:42:28;;;;;;;;;;;;;;;;;;5449221;26;19929;-65
2024/04/13 08:44:53;;;;;;;;;;;;;;;;;;5448958;26;19929;-65
2024/04/13 08:47:19;;;;;;;;;;;;;;;;;;5447826;26;19928;-65
2024/04/13 08:49:44;;;;;;;;;;;;;;;;;;5449276;26;20450;-64
2024/04/13 08:52:09;;;;;;;;;;;;;;;;;;5448113;26;19928;-65
2024/04/13 08:54:34;;;;;;;;;;;;;;;;;;5450872;26;19932;-65
2024/04/13 08:56:59;;;;;;;;;;;;;;;;;;5449238;26;19943;-64
2024/04/13 08:59:24;;;;;;;;;;;;;;;;;;5449612;26;19968;-64
2024/04/13 09:01:50;;;;;;;;;;;;;;;;;;5449475;26;19929;-64
2024/04/13 09:04:15;;;;;;;;;;;;;;;;;;5449729;26;19929;-64
2024/04/13 09:06:40;;;;;;;;;;;;;;;;;;5450121;26;19936;-65
2024/04/13 09:09:08;;;;;;;;;;;;;;;;;;5450054;26;19935;-65
2024/04/13 09:11:35;;;;;;;;;;;;;;;;;;5449959;26;19943;-63
2024/04/13 09:14:00;;;;;;;;;;;;;;;;;;5447887;26;19997;-63
2024/04/13 09:16:25;;;;;;;;;;;;;;;;;;5441502;26;19940;-63
2024/04/13 09:18:50;;;;;;;;;;;;;;;;;;5450352;26;20655;-64
2024/04/13 09:21:15;;;;;;;;;;;;;;;;;;5433324;26;19929;-63
2024/04/13 09:23:40;;;;;;;;;;;;;;;;;;5450453;26;19929;-64
2024/04/13 09:26:05;;;;;;;;;;;;;;;;;;5448886;26;19943;-64
2024/04/13 09:28:30;;;;;;;;;;;;;;;;;;5452004;26;19948;-62
2024/04/13 09:30:57;;;;;;;;;;;;;;;;;;5449361;26;19936;-62
2024/04/13 09:33:22;;;;;;;;;;;;;;;;;;5449422;26;19956;-62
2024/04/13 09:35:47;;;;;;;;;;;;;;;;;;5445833;26;19936;-62
2024/04/13 09:38:12;;;;;;;;;;;;;;;;;;5449337;26;19940;-63
2024/04/13 09:40:39;;;;;;;;;;;;;;;;;;5449253;26;19929;-61
2024/04/13 09:43:04;;;;;;;;;;;;;;;;;;5448346;26;20328;-62
2024/04/13 09:45:29;;;;;;;;;;;;;;;;;;5449345;26;19928;-63
2024/04/13 09:47:55;;;;;;;;;;;;;;;;;;5449341;26;19932;-63
2024/04/13 09:50:20;;;;;;;;;;;;;;;;;;5448957;26;19929;-62
2024/04/13 09:52:45;;;;;;;;;;;;;;;;;;5448673;26;19997;-63
2024/04/13 09:55:11;;;;;;;;;;;;;;;;;;5450194;26;19928;-63
2024/04/13 09:57:36;;;;;;;;;;;;;;;;;;5441086;26;22114;-62
2024/04/13 10:00:02;;;;;;;;;;;;;;;;;;5451966;26;19935;-64
2024/04/13 10:02:28;;;;;;;;;;;;;;;;;;5478093;26;19936;-62
2024/04/13 10:04:54;;;;;;;;;;;;;;;;;;5481758;26;19940;-62
2024/04/13 10:07:19;;;;;;;;;;;;;;;;;;5481211;26;19947;-61
2024/04/13 10:09:44;;;;;;;;;;;;;;;;;;5481394;26;20053;-62
2024/04/13 10:12:09;;;;;;;;;;;;;;;;;;5480413;26;19996;-62
2024/04/13 10:14:34;;;;;;;;;;;;;;;;;;5477424;26;20267;-63
2024/04/13 10:17:01;;;;;;;;;;;;;;;;;;5482124;26;19934;-62
2024/04/13 10:19:26;;;;;;;;;;;;;;;;;;5482262;26;19928;-61
2024/04/13 10:21:51;;;;;;;;;;;;;;;;;;5485388;26;19932;-62
2024/04/13 10:24:16;;;;;;;;;;;;;;;;;;5482626;26;20262;-61
2024/04/13 10:26:42;;;;;;;;;;;;;;;;;;5478571;26;19933;-62
2024/04/13 10:29:07;;;;;;;;;;;;;;;;;;5473320;26;19928;-62
2024/04/13 10:31:32;;;;;;;;;;;;;;;;;;5483885;26;19928;-63
2024/04/13 10:33:57;;;;;;;;;;;;;;;;;;5467307;26;19959;-62
2024/04/13 10:36:22;;;;;;;;;;;;;;;;;;5481419;26;20265;-61
2024/04/13 10:38:47;;;;;;;;;;;;;;;;;;5481710;26;19928;-61
2024/04/13 10:41:13;;;;;;;;;;;;;;;;;;5476644;26;19928;-65
2024/04/13 10:43:38;;;;;;;;;;;;;;;;;;5464600;26;19952;-66
2024/04/13 10:46:05;;;;;;;;;;;;;;;;;;5477463;26;19935;-65
2024/04/13 10:48:30;;;;;;;;;;;;;;;;;;5487896;26;19997;-65
2024/04/13 10:50:55;;;;;;;;;;;;;;;;;;5482568;26;20026;-65
2024/04/13 10:53:23;;;;;;;;;;;;;;;;;;5485719;26;19935;-65
2024/04/13 10:55:49;;;;;;;;;;;;;;;;;;5475763;26;19992;-65
2024/04/13 10:58:14;;;;;;;;;;;;;;;;;;5461195;26;19929;-65
2024/04/13 11:00:39;;;;;;;;;;;;;;;;;;5488392;26;19928;-65
2024/04/13 11:03:05;;;;;;;;;;;;;;;;;;5488571;26;19935;-65
2024/04/13 11:05:30;;;;;;;;;;;;;;;;;;5459238;26;19986;-68
2024/04/13 11:07:55;;;;;;;;;;;;;;;;;;5442227;26;19978;-65
2024/04/13 11:10:20;;;;;;;;;;;;;;;;;;5447502;26;19937;-64
2024/04/13 11:12:46;;;;;;;;;;;;;;;;;;5447122;26;19935;-65
2024/04/13 11:15:12;;;;;;;;;;;;;;;;;;5446525;26;19939;-65
2024/04/13 11:17:37;;;;;;;;;;;;;;;;;;5448397;26;19928;-65
2024/04/13 11:20:02;;;;;;;;;;;;;;;;;;5446391;26;19935;-65
2024/04/13 11:22:28;;;;;;;;;;;;;;;;;;5444343;26;19996;-65
2024/04/13 11:24:53;;;;;;;;;;;;;;;;;;5444334;26;20362;-65
2024/04/13 11:27:18;;;;;;;;;;;;;;;;;;5434697;26;19940;-65
2024/04/13 11:29:43;;;;;;;;;;;;;;;;;;5436378;26;20343;-65
2024/04/13 11:32:08;;;;;;;;;;;;;;;;;;5444496;26;20000;-65
2024/04/13 11:34:34;;;;;;;;;;;;;;;;;;5446118;26;19935;-66
2024/04/13 11:36:59;;;;;;;;;;;;;;;;;;5447365;26;19932;-65
2024/04/13 11:39:24;;;;;;;;;;;;;;;;;;5446783;26;19936;-65
2024/04/13 11:41:49;;;;;;;;;;;;;;;;;;5447316;26;19929;-65
2024/04/13 11:44:14;;;;;;;;;;;;;;;;;;5447961;26;19928;-65
2024/04/13 11:46:40;;;;;;;;;;;;;;;;;;5447082;26;19928;-65
2024/04/13 11:49:05;;;;;;;;;;;;;;;;;;5446282;26;19928;-65
2024/04/13 11:51:30;;;;;;;;;;;;;;;;;;5445965;26;19928;-65
2024/04/13 11:53:55;;;;;;;;;;;;;;;;;;5444557;26;19940;-64
2024/04/13 11:56:21;;;;;;;;;;;;;;;;;;5441425;26;20021;-65
2024/04/13 11:58:49;;;;;;;;;;;;;;;;;;5447178;26;20413;-65
2024/04/13 12:01:14;;;;;;;;;;;;;;;;;;5445373;26;19941;-63
2024/04/13 12:03:39;;;;;;;;;;;;;;;;;;5447059;26;19928;-62
2024/04/13 12:06:04;;;;;;;;;;;;;;;;;;5444093;26;19948;-62
2024/04/13 12:08:29;;;;;;;;;;;;;;;;;;5439351;26;19936;-63
2024/04/13 12:10:57;;;;;;;;;;;;;;;;;;5427322;26;19945;-61
2024/04/13 12:13:22;;;;;;;;;;;;;;;;;;5439765;26;19997;-62
2024/04/13 12:15:47;;;;;;;;;;;;;;;;;;5440362;26;19940;-63
2024/04/13 12:18:12;;;;;;;;;;;;;;;;;;5445402;26;19936;-62
2024/04/13 12:20:37;;;;;;;;;;;;;;;;;;5435609;26;19960;-61
2024/04/13 12:23:02;;;;;;;;;;;;;;;;;;5442710;26;19929;-60
2024/04/13 12:25:28;;;;;;;;;;;;;;;;;;5437586;26;19928;-65
2024/04/13 12:27:53;;;;;;;;;;;;;;;;;;5447352;26;19939;-65
2024/04/13 12:30:18;;;;;;;;;;;;;;;;;;5447344;26;19928;-65
2024/04/13 12:32:43;;;;;;;;;;;;;;;;;;5447080;26;19928;-66
2024/04/13 12:35:10;;;;;;;;;;;;;;;;;;5447428;26;19932;-66
2024/04/13 12:37:35;;;;;;;;;;;;;;;;;;5447473;26;20021;-65
2024/04/13 12:40:00;;;;;;;;;;;;;;;;;;5446247;26;19936;-65
2024/04/13 12:42:25;;;;;;;;;;;;;;;;;;5446964;26;19945;-66
2024/04/13 12:44:50;;;;;;;;;;;;;;;;;;5446257;26;20630;-65
2024/04/13 12:47:16;;;;;;;;;;;;;;;;;;5446425;26;19929;-66
2024/04/13 12:49:41;;;;;;;;;;;;;;;;;;5440453;26;19935;-65
2024/04/13 12:52:06;;;;;;;;;;;;;;;;;;5419887;26;19998;-66
2024/04/13 12:54:32;;;;;;;;;;;;;;;;;;5445966;26;20033;-65
2024/04/13 12:56:59;;;;;;;;;;;;;;;;;;5442439;26;21602;-66
2024/04/13 12:59:24;;;;;;;;;;;;;;;;;;5446068;26;19928;-65
2024/04/13 13:01:49;;;;;;;;;;;;;;;;;;5446120;26;19933;-65
2024/04/13 13:04:14;;;;;;;;;;;;;;;;;;5445224;26;19933;-65
2024/04/13 13:06:39;;;;;;;;;;;;;;;;;;5446273;26;19940;-66
2024/04/13 13:09:06;;;;;;;;;;;;;;;;;;5469202;26;19928;-65
2024/04/13 13:11:31;;;;;;;;;;;;;;;;;;5471276;26;20418;-65
2024/04/13 13:13:56;;;;;;;;;;;;;;;;;;5467570;26;19932;-65
2024/04/13 13:16:21;;;;;;;;;;;;;;;;;;5464165;26;19939;-65
2024/04/13 13:18:46;;;;;;;;;;;;;;;;;;5480825;26;19935;-65
2024/04/13 13:21:11;;;;;;;;;;;;;;;;;;5472260;26;19940;-65
2024/04/13 13:23:38;;;;;;;;;;;;;;;;;;5479991;26;19934;-64
2024/04/13 13:26:03;;;;;;;;;;;;;;;;;;5451460;26;19940;-65
2024/04/13 13:28:28;;;;;;;;;;;;;;;;;;5435332;26;19936;-65
2024/04/13 13:30:53;;;;;;;;;;;;;;;;;;5436669;26;19936;-65
2024/04/13 13:33:18;;;;;;;;;;;;;;;;;;5440488;26;19946;-65
2024/04/13 13:35:43;;;;;;;;;;;;;;;;;;5435665;26;19928;-65
2024/04/13 13:38:08;;;;;;;;;;;;;;;;;;5435912;26;19935;-65
2024/04/13 13:40:34;;;;;;;;;;;;;;;;;;5444135;26;20770;-65
2024/04/13 13:42:59;;;;;;;;;;;;;;;;;;5435675;26;20077;-65
2024/04/13 13:45:24;;;;;;;;;;;;;;;;;;5444515;26;19936;-65
2024/04/13 13:47:49;;;;;;;;;;;;;;;;;;5448675;26;19965;-65
2024/04/13 13:50:15;;;;;;;;;;;;;;;;;;5446538;26;20270;-65
2024/04/13 13:52:41;;;;;;;;;;;;;;;;;;5439184;26;19977;-65
2024/04/13 13:55:06;;;;;;;;;;;;;;;;;;5449462;26;19937;-65
2024/04/13 13:57:31;;;;;;;;;;;;;;;;;;5444307;26;19949;-65
2024/04/13 13:59:56;;;;;;;;;;;;;;;;;;5428207;26;19929;-65
2024/04/13 14:02:21;;;;;;;;;;;;;;;;;;5446894;26;20364;-65
2024/04/13 14:04:46;;;;;;;;;;;;;;;;;;5444145;26;20365;-65
2024/04/13 14:07:12;;;;;;;;;;;;;;;;;;5434538;26;20368;-65
2024/04/13 14:09:37;;;;;;;;;;;;;;;;;;5436868;26;19970;-65
2024/04/13 14:12:02;;;;;;;;;;;;;;;;;;5429217;26;19936;-65
2024/04/13 14:14:27;;;;;;;;;;;;;;;;;;5446200;26;19929;-65
2024/04/13 14:16:52;;;;;;;;;;;;;;;;;;5432609;26;19944;-65
2024/04/13 14:19:18;;;;;;;;;;;;;;;;;;5436991;26;19929;-64
2024/04/13 14:21:43;;;;;;;;;;;;;;;;;;5441135;26;19936;-63
2024/04/13 14:24:08;;;;;;;;;;;;;;;;;;5444941;26;19928;-62
2024/04/13 14:26:34;;;;;;;;;;;;;;;;;;5429748;26;19936;-62
2024/04/13 14:28:59;;;;;;;;;;;;;;;;;;5441575;26;20361;-62
2024/04/13 14:31:24;;;;;;;;;;;;;;;;;;5441913;26;19928;-61
2024/04/13 14:33:49;;;;;;;;;;;;;;;;;;5437168;26;19929;-63
2024/04/13 14:36:14;;;;;;;;;;;;;;;;;;5438231;26;19940;-61
2024/04/13 14:38:39;;;;;;;;;;;;;;;;;;5438260;26;19929;-62
2024/04/13 14:41:04;;;;;;;;;;;;;;;;;;5425790;26;19929;-62
2024/04/13 14:43:29;;;;;;;;;;;;;;;;;;5430385;26;19966;-62
2024/04/13 14:45:56;;;;;;;;;;;;;;;;;;5442877;26;19928;-63
2024/04/13 14:48:21;;;;;;;;;;;;;;;;;;5451128;26;19932;-62
2024/04/13 14:50:46;;;;;;;;;;;;;;;;;;5450896;26;20258;-61
2024/04/13 14:53:11;;;;;;;;;;;;;;;;;;5451723;26;19928;-62
2024/04/13 14:55:38;;;;;;;;;;;;;;;;;;5451286;26;19936;-61
2024/04/13 14:58:03;;;;;;;;;;;;;;;;;;5448847;26;19929;-64
2024/04/13 15:00:28;;;;;;;;;;;;;;;;;;5449940;26;19928;-61
2024/04/13 15:02:53;;;;;;;;;;;;;;;;;;5451681;26;19953;-61
2024/04/13 15:05:18;;;;;;;;;;;;;;;;;;5440703;26;19979;-62
2024/04/13 15:07:43;;;;;;;;;;;;;;;;;;5439802;26;19936;-62
2024/04/13 15:10:08;;;;;;;;;;;;;;;;;;5441470;26;19933;-61
2024/04/13 15:12:33;;;;;;;;;;;;;;;;;;5447293;26;19928;-62
2024/04/13 15:14:58;;;;;;;;;;;;;;;;;;5440357;26;20373;-61
2024/04/13 15:17:24;;;;;;;;;;;;;;;;;;5450832;26;20794;-61
2024/04/13 15:19:49;;;;;;;;;;;;;;;;;;5450472;26;19940;-62
2024/04/13 15:22:14;;;;;;;;;;;;;;;;;;5449392;26;19935;-62
2024/04/13 15:24:39;;;;;;;;;;;;;;;;;;5451766;26;19932;-61
2024/04/13 15:27:04;;;;;;;;;;;;;;;;;;5451980;26;19928;-62
2024/04/13 15:29:29;;;;;;;;;;;;;;;;;;5451975;26;19997;-62
2024/04/13 15:31:54;;;;;;;;;;;;;;;;;;5452144;26;19942;-62
2024/04/13 15:34:20;;;;;;;;;;;;;;;;;;5452024;26;20001;-62
2024/04/13 15:36:45;;;;;;;;;;;;;;;;;;5451246;26;19997;-62
2024/04/13 15:39:10;;;;;;;;;;;;;;;;;;5451166;26;20269;-62
2024/04/13 15:41:35;;;;;;;;;;;;;;;;;;5451933;26;19940;-62
2024/04/13 15:44:00;;;;;;;;;;;;;;;;;;5451889;26;20380;-63
2024/04/13 15:46:25;;;;;;;;;;;;;;;;;;5452172;26;20265;-62
2024/04/13 15:48:50;;;;;;;;;;;;;;;;;;5452110;26;19932;-62
2024/04/13 15:51:15;;;;;;;;;;;;;;;;;;5451626;26;19928;-62
2024/04/13 15:53:41;;;;;;;;;;;;;;;;;;5451581;26;20031;-62
2024/04/13 15:56:06;;;;;;;;;;;;;;;;;;5451862;26;19936;-62
2024/04/13 15:58:31;;;;;;;;;;;;;;;;;;5452098;26;19936;-62
2024/04/13 16:00:56;;;;;;;;;;;;;;;;;;5447838;26;19928;-61
2024/04/13 16:03:21;;;;;;;;;;;;;;;;;;5450389;26;19928;-61
2024/04/13 16:05:47;;;;;;;;;;;;;;;;;;5450974;26;19929;-61
2024/04/13 16:08:13;;;;;;;;;;;;;;;;;;5451754;26;19940;-63
2024/04/13 16:10:38;;;;;;;;;;;;;;;;;;5450705;26;19940;-62
2024/04/13 16:13:03;;;;;;;;;;;;;;;;;;5447015;26;19937;-62
2024/04/13 16:15:28;;;;;;;;;;;;;;;;;;5450248;26;19951;-62
2024/04/13 16:17:53;;;;;;;;;;;;;;;;;;5450459;26;19935;-63
2024/04/13 16:20:18;;;;;;;;;;;;;;;;;;5450732;26;19928;-63
2024/04/13 16:22:43;;;;;;;;;;;;;;;;;;5451493;26;19997;-62
2024/04/13 16:25:09;;;;;;;;;;;;;;;;;;5450297;26;20057;-62
2024/04/13 16:27:34;;;;;;;;;;;;;;;;;;5448789;26;19956;-62
2024/04/13 16:29:59;;;;;;;;;;;;;;;;;;5450552;26;20268;-62
2024/04/13 16:32:24;;;;;;;;;;;;;;;;;;5450091;26;20423;-62